sensor_id;sensor_type;location;lat;lon;timestamp;P1;durP1;ratioP1;P2;durP2;ratioP2
49730;SDS011;35622;52.008;5.426;2024-02-23T00:00:28;2.70;;;0.70;;
49730;SDS011;35622;52.008;5.426;2024-02-23T00:02:53;6.53;;;0.90;;
49730;SDS011;35622;52.008;5.426;2024-02-23T00:05:21;3.70;;;1.10;;
49730;SDS011;35622;52.008;5.426;2024-02-23T00:07:47;6.83;;;0.90;;
49730;SDS011;35622;52.008;5.426;2024-02-23T00:10:12;4.78;;;1.20;;
49730;SDS011;35622;52.008;5.426;2024-02-23T00:12:38;4.47;;;1.20;;
49730;SDS011;35622;52.008;5.426;2024-02-23T00:15:04;5.32;;;1.35;;
49730;SDS011;35622;52.008;5.426;2024-02-23T00:17:30;5.40;;;1.45;;
49730;SDS011;35622;52.008;5.426;2024-02-23T00:19:55;6.50;;;1.27;;
49730;SDS011;35622;52.008;5.426;2024-02-23T00:22:21;5.18;;;1.27;;
49730;SDS011;35622;52.008;5.426;2024-02-23T00:24:46;6.43;;;1.27;;
49730;SDS011;35622;52.008;5.426;2024-02-23T00:27:12;5.15;;;1.35;;
49730;SDS011;35622;52.008;5.426;2024-02-23T00:29:37;7.07;;;1.25;;
49730;SDS011;35622;52.008;5.426;2024-02-23T00:32:03;8.10;;;1.55;;
49730;SDS011;35622;52.008;5.426;2024-02-23T00:34:29;7.15;;;1.35;;
49730;SDS011;35622;52.008;5.426;2024-02-23T00:36:56;9.65;;;1.33;;
49730;SDS011;35622;52.008;5.426;2024-02-23T00:39:22;7.45;;;1.73;;
49730;SDS011;35622;52.008;5.426;2024-02-23T00:41:48;8.20;;;1.52;;
49730;SDS011;35622;52.008;5.426;2024-02-23T00:44:14;7.93;;;1.20;;
49730;SDS011;35622;52.008;5.426;2024-02-23T00:46:39;3.95;;;1.13;;
49730;SDS011;35622;52.008;5.426;2024-02-23T00:49:05;4.13;;;1.20;;
49730;SDS011;35622;52.008;5.426;2024-02-23T00:51:31;7.10;;;1.42;;
49730;SDS011;35622;52.008;5.426;2024-02-23T00:53:57;5.40;;;1.08;;
49730;SDS011;35622;52.008;5.426;2024-02-23T00:56:22;4.15;;;1.17;;
49730;SDS011;35622;52.008;5.426;2024-02-23T00:58:48;9.43;;;1.20;;
49730;SDS011;35622;52.008;5.426;2024-02-23T01:01:14;5.63;;;1.55;;
49730;SDS011;35622;52.008;5.426;2024-02-23T01:03:40;6.65;;;1.58;;
49730;SDS011;35622;52.008;5.426;2024-02-23T01:06:05;8.23;;;1.88;;
49730;SDS011;35622;52.008;5.426;2024-02-23T01:08:31;5.53;;;1.33;;
49730;SDS011;35622;52.008;5.426;2024-02-23T01:10:56;7.53;;;1.58;;
49730;SDS011;35622;52.008;5.426;2024-02-23T01:13:22;6.25;;;1.50;;
49730;SDS011;35622;52.008;5.426;2024-02-23T01:15:48;9.20;;;1.77;;
49730;SDS011;35622;52.008;5.426;2024-02-23T01:18:13;6.25;;;1.45;;
49730;SDS011;35622;52.008;5.426;2024-02-23T01:20:39;4.43;;;1.42;;
49730;SDS011;35622;52.008;5.426;2024-02-23T01:23:04;10.07;;;1.63;;
49730;SDS011;35622;52.008;5.426;2024-02-23T01:25:30;6.93;;;1.58;;
49730;SDS011;35622;52.008;5.426;2024-02-23T01:27:56;6.78;;;1.92;;
49730;SDS011;35622;52.008;5.426;2024-02-23T01:30:21;8.07;;;1.75;;
49730;SDS011;35622;52.008;5.426;2024-02-23T01:32:47;6.30;;;1.50;;
49730;SDS011;35622;52.008;5.426;2024-02-23T01:35:13;5.95;;;1.77;;
49730;SDS011;35622;52.008;5.426;2024-02-23T01:37:38;7.28;;;1.63;;
49730;SDS011;35622;52.008;5.426;2024-02-23T01:40:04;10.50;;;1.80;;
49730;SDS011;35622;52.008;5.426;2024-02-23T01:42:31;6.95;;;1.58;;
49730;SDS011;35622;52.008;5.426;2024-02-23T01:44:57;8.38;;;1.73;;
49730;SDS011;35622;52.008;5.426;2024-02-23T01:47:23;7.80;;;1.90;;
49730;SDS011;35622;52.008;5.426;2024-02-23T01:49:49;9.25;;;1.60;;
49730;SDS011;35622;52.008;5.426;2024-02-23T01:52:16;7.38;;;1.50;;
49730;SDS011;35622;52.008;5.426;2024-02-23T01:54:42;10.85;;;1.77;;
49730;SDS011;35622;52.008;5.426;2024-02-23T01:57:08;10.90;;;1.80;;
49730;SDS011;35622;52.008;5.426;2024-02-23T01:59:35;5.95;;;1.45;;
49730;SDS011;35622;52.008;5.426;2024-02-23T02:02:03;8.75;;;1.80;;
49730;SDS011;35622;52.008;5.426;2024-02-23T02:04:29;9.93;;;2.28;;
49730;SDS011;35622;52.008;5.426;2024-02-23T02:06:55;5.82;;;1.80;;
49730;SDS011;35622;52.008;5.426;2024-02-23T02:09:22;5.05;;;1.52;;
49730;SDS011;35622;52.008;5.426;2024-02-23T02:11:48;8.18;;;1.70;;
49730;SDS011;35622;52.008;5.426;2024-02-23T02:14:15;9.15;;;2.45;;
49730;SDS011;35622;52.008;5.426;2024-02-23T02:16:41;6.07;;;1.87;;
49730;SDS011;35622;52.008;5.426;2024-02-23T02:19:08;7.38;;;2.10;;
49730;SDS011;35622;52.008;5.426;2024-02-23T02:21:35;8.97;;;2.10;;
49730;SDS011;35622;52.008;5.426;2024-02-23T02:24:01;6.15;;;2.17;;
49730;SDS011;35622;52.008;5.426;2024-02-23T02:26:27;6.00;;;1.92;;
49730;SDS011;35622;52.008;5.426;2024-02-23T02:28:53;8.73;;;2.15;;
49730;SDS011;35622;52.008;5.426;2024-02-23T02:31:19;7.13;;;2.08;;
49730;SDS011;35622;52.008;5.426;2024-02-23T02:33:44;5.30;;;1.98;;
49730;SDS011;35622;52.008;5.426;2024-02-23T02:36:10;7.27;;;1.70;;
49730;SDS011;35622;52.008;5.426;2024-02-23T02:38:36;6.80;;;2.10;;
49730;SDS011;35622;52.008;5.426;2024-02-23T02:41:02;6.50;;;1.63;;
49730;SDS011;35622;52.008;5.426;2024-02-23T02:43:28;6.65;;;1.58;;
49730;SDS011;35622;52.008;5.426;2024-02-23T02:45:54;4.00;;;1.33;;
49730;SDS011;35622;52.008;5.426;2024-02-23T02:48:19;6.30;;;1.53;;
49730;SDS011;35622;52.008;5.426;2024-02-23T02:50:45;10.40;;;1.40;;
49730;SDS011;35622;52.008;5.426;2024-02-23T02:53:11;8.27;;;1.50;;
49730;SDS011;35622;52.008;5.426;2024-02-23T02:55:37;8.40;;;1.40;;
49730;SDS011;35622;52.008;5.426;2024-02-23T02:58:06;6.13;;;1.75;;
49730;SDS011;35622;52.008;5.426;2024-02-23T03:00:31;5.10;;;1.50;;
49730;SDS011;35622;52.008;5.426;2024-02-23T03:02:57;6.45;;;1.25;;
49730;SDS011;35622;52.008;5.426;2024-02-23T03:05:23;8.63;;;1.35;;
49730;SDS011;35622;52.008;5.426;2024-02-23T03:07:48;4.10;;;1.20;;
49730;SDS011;35622;52.008;5.426;2024-02-23T03:10:14;6.78;;;1.63;;
49730;SDS011;35622;52.008;5.426;2024-02-23T03:12:40;4.43;;;1.30;;
49730;SDS011;35622;52.008;5.426;2024-02-23T03:15:06;3.88;;;1.20;;
49730;SDS011;35622;52.008;5.426;2024-02-23T03:17:32;6.15;;;1.30;;
49730;SDS011;35622;52.008;5.426;2024-02-23T03:19:58;4.78;;;1.30;;
49730;SDS011;35622;52.008;5.426;2024-02-23T03:22:24;7.17;;;1.30;;
49730;SDS011;35622;52.008;5.426;2024-02-23T03:24:49;5.60;;;1.63;;
49730;SDS011;35622;52.008;5.426;2024-02-23T03:27:15;5.30;;;1.10;;
49730;SDS011;35622;52.008;5.426;2024-02-23T03:29:40;4.25;;;0.77;;
49730;SDS011;35622;52.008;5.426;2024-02-23T03:32:07;6.15;;;1.25;;
49730;SDS011;35622;52.008;5.426;2024-02-23T03:34:32;3.97;;;1.08;;
49730;SDS011;35622;52.008;5.426;2024-02-23T03:36:58;6.13;;;1.20;;
49730;SDS011;35622;52.008;5.426;2024-02-23T03:39:25;5.40;;;1.25;;
49730;SDS011;35622;52.008;5.426;2024-02-23T03:41:50;11.00;;;1.40;;
49730;SDS011;35622;52.008;5.426;2024-02-23T03:44:16;4.57;;;1.13;;
49730;SDS011;35622;52.008;5.426;2024-02-23T03:46:41;5.10;;;1.55;;
49730;SDS011;35622;52.008;5.426;2024-02-23T03:49:07;4.30;;;1.40;;
49730;SDS011;35622;52.008;5.426;2024-02-23T03:51:33;6.60;;;1.40;;
49730;SDS011;35622;52.008;5.426;2024-02-23T03:54:01;3.78;;;1.40;;
49730;SDS011;35622;52.008;5.426;2024-02-23T03:56:28;7.37;;;1.40;;
49730;SDS011;35622;52.008;5.426;2024-02-23T03:58:53;5.67;;;1.70;;
49730;SDS011;35622;52.008;5.426;2024-02-23T04:01:19;7.80;;;1.83;;
49730;SDS011;35622;52.008;5.426;2024-02-23T04:03:44;2.90;;;1.40;;
49730;SDS011;35622;52.008;5.426;2024-02-23T04:06:10;5.40;;;1.52;;
49730;SDS011;35622;52.008;5.426;2024-02-23T04:08:35;6.40;;;1.93;;
49730;SDS011;35622;52.008;5.426;2024-02-23T04:11:01;5.40;;;1.60;;
49730;SDS011;35622;52.008;5.426;2024-02-23T04:13:27;5.07;;;1.80;;
49730;SDS011;35622;52.008;5.426;2024-02-23T04:15:53;5.88;;;1.60;;
49730;SDS011;35622;52.008;5.426;2024-02-23T04:18:19;5.03;;;1.50;;
49730;SDS011;35622;52.008;5.426;2024-02-23T04:20:44;4.97;;;1.38;;
49730;SDS011;35622;52.008;5.426;2024-02-23T04:23:10;7.70;;;1.60;;
49730;SDS011;35622;52.008;5.426;2024-02-23T04:25:35;6.57;;;1.48;;
49730;SDS011;35622;52.008;5.426;2024-02-23T04:28:01;8.73;;;1.58;;
49730;SDS011;35622;52.008;5.426;2024-02-23T04:30:27;5.65;;;1.75;;
49730;SDS011;35622;52.008;5.426;2024-02-23T04:32:53;6.95;;;1.50;;
49730;SDS011;35622;52.008;5.426;2024-02-23T04:35:18;7.13;;;1.50;;
49730;SDS011;35622;52.008;5.426;2024-02-23T04:37:44;7.60;;;1.73;;
49730;SDS011;35622;52.008;5.426;2024-02-23T04:40:10;7.63;;;1.73;;
49730;SDS011;35622;52.008;5.426;2024-02-23T04:42:36;9.55;;;1.75;;
49730;SDS011;35622;52.008;5.426;2024-02-23T04:45:03;5.78;;;1.73;;
49730;SDS011;35622;52.008;5.426;2024-02-23T04:47:29;3.95;;;1.50;;
49730;SDS011;35622;52.008;5.426;2024-02-23T04:49:55;5.70;;;1.80;;
49730;SDS011;35622;52.008;5.426;2024-02-23T04:52:20;2.95;;;1.50;;
49730;SDS011;35622;52.008;5.426;2024-02-23T04:54:46;6.40;;;1.50;;
49730;SDS011;35622;52.008;5.426;2024-02-23T04:57:11;9.43;;;1.80;;
49730;SDS011;35622;52.008;5.426;2024-02-23T04:59:37;5.22;;;2.10;;
49730;SDS011;35622;52.008;5.426;2024-02-23T05:02:03;7.80;;;1.77;;
49730;SDS011;35622;52.008;5.426;2024-02-23T05:04:29;9.77;;;2.40;;
49730;SDS011;35622;52.008;5.426;2024-02-23T05:06:54;8.10;;;1.70;;
49730;SDS011;35622;52.008;5.426;2024-02-23T05:09:20;8.02;;;2.00;;
49730;SDS011;35622;52.008;5.426;2024-02-23T05:11:46;8.48;;;2.20;;
49730;SDS011;35622;52.008;5.426;2024-02-23T05:14:12;6.82;;;1.90;;
49730;SDS011;35622;52.008;5.426;2024-02-23T05:16:38;7.95;;;2.65;;
49730;SDS011;35622;52.008;5.426;2024-02-23T05:19:03;8.52;;;2.40;;
49730;SDS011;35622;52.008;5.426;2024-02-23T05:21:29;4.15;;;1.90;;
49730;SDS011;35622;52.008;5.426;2024-02-23T05:23:54;7.18;;;2.30;;
49730;SDS011;35622;52.008;5.426;2024-02-23T05:26:20;5.68;;;2.00;;
49730;SDS011;35622;52.008;5.426;2024-02-23T05:28:46;6.15;;;2.00;;
49730;SDS011;35622;52.008;5.426;2024-02-23T05:31:11;5.07;;;2.33;;
49730;SDS011;35622;52.008;5.426;2024-02-23T05:33:37;5.57;;;2.20;;
49730;SDS011;35622;52.008;5.426;2024-02-23T05:36:03;7.53;;;2.08;;
49730;SDS011;35622;52.008;5.426;2024-02-23T05:38:29;6.70;;;1.85;;
49730;SDS011;35622;52.008;5.426;2024-02-23T05:40:56;6.43;;;2.10;;
49730;SDS011;35622;52.008;5.426;2024-02-23T05:43:21;4.55;;;2.10;;
49730;SDS011;35622;52.008;5.426;2024-02-23T05:45:47;7.18;;;1.73;;
49730;SDS011;35622;52.008;5.426;2024-02-23T05:48:13;4.20;;;1.73;;
49730;SDS011;35622;52.008;5.426;2024-02-23T05:50:38;6.07;;;1.95;;
49730;SDS011;35622;52.008;5.426;2024-02-23T05:53:04;9.07;;;2.17;;
49730;SDS011;35622;52.008;5.426;2024-02-23T05:55:30;6.03;;;1.80;;
49730;SDS011;35622;52.008;5.426;2024-02-23T05:57:55;5.43;;;2.03;;
49730;SDS011;35622;52.008;5.426;2024-02-23T06:00:21;6.82;;;1.67;;
49730;SDS011;35622;52.008;5.426;2024-02-23T06:02:47;5.85;;;1.73;;
49730;SDS011;35622;52.008;5.426;2024-02-23T06:05:13;6.00;;;1.77;;
49730;SDS011;35622;52.008;5.426;2024-02-23T06:07:38;3.15;;;1.63;;
49730;SDS011;35622;52.008;5.426;2024-02-23T06:10:05;9.47;;;1.90;;
49730;SDS011;35622;52.008;5.426;2024-02-23T06:12:31;6.25;;;1.70;;
49730;SDS011;35622;52.008;5.426;2024-02-23T06:14:56;8.00;;;1.50;;
49730;SDS011;35622;52.008;5.426;2024-02-23T06:17:23;6.78;;;1.50;;
49730;SDS011;35622;52.008;5.426;2024-02-23T06:19:49;4.32;;;1.45;;
49730;SDS011;35622;52.008;5.426;2024-02-23T06:22:15;5.45;;;1.60;;
49730;SDS011;35622;52.008;5.426;2024-02-23T06:24:45;6.75;;;1.50;;
49730;SDS011;35622;52.008;5.426;2024-02-23T06:27:14;6.20;;;1.60;;
49730;SDS011;35622;52.008;5.426;2024-02-23T06:29:40;5.57;;;1.40;;
49730;SDS011;35622;52.008;5.426;2024-02-23T06:32:05;5.45;;;1.42;;
49730;SDS011;35622;52.008;5.426;2024-02-23T06:34:31;2.65;;;1.20;;
49730;SDS011;35622;52.008;5.426;2024-02-23T06:36:57;6.70;;;1.58;;
49730;SDS011;35622;52.008;5.426;2024-02-23T06:39:22;3.38;;;1.27;;
49730;SDS011;35622;52.008;5.426;2024-02-23T06:41:48;5.00;;;1.45;;
49730;SDS011;35622;52.008;5.426;2024-02-23T06:44:13;5.85;;;1.30;;
49730;SDS011;35622;52.008;5.426;2024-02-23T06:46:39;5.50;;;1.60;;
49730;SDS011;35622;52.008;5.426;2024-02-23T06:49:05;4.60;;;1.35;;
49730;SDS011;35622;52.008;5.426;2024-02-23T06:51:32;3.20;;;1.40;;
49730;SDS011;35622;52.008;5.426;2024-02-23T06:53:57;3.22;;;1.55;;
49730;SDS011;35622;52.008;5.426;2024-02-23T06:56:23;6.15;;;1.50;;
49730;SDS011;35622;52.008;5.426;2024-02-23T06:58:48;3.85;;;1.50;;
49730;SDS011;35622;52.008;5.426;2024-02-23T07:01:14;7.25;;;1.88;;
49730;SDS011;35622;52.008;5.426;2024-02-23T07:03:40;5.80;;;1.83;;
49730;SDS011;35622;52.008;5.426;2024-02-23T07:06:10;6.38;;;1.95;;
49730;SDS011;35622;52.008;5.426;2024-02-23T07:08:36;10.88;;;2.08;;
49730;SDS011;35622;52.008;5.426;2024-02-23T07:11:01;4.80;;;1.98;;
49730;SDS011;35622;52.008;5.426;2024-02-23T07:13:27;6.07;;;2.00;;
49730;SDS011;35622;52.008;5.426;2024-02-23T07:15:53;6.22;;;1.80;;
49730;SDS011;35622;52.008;5.426;2024-02-23T07:18:20;5.90;;;2.15;;
49730;SDS011;35622;52.008;5.426;2024-02-23T07:20:46;8.45;;;2.38;;
49730;SDS011;35622;52.008;5.426;2024-02-23T07:23:12;7.43;;;2.05;;
49730;SDS011;35622;52.008;5.426;2024-02-23T07:25:37;6.28;;;1.75;;
49730;SDS011;35622;52.008;5.426;2024-02-23T07:28:03;5.85;;;1.40;;
49730;SDS011;35622;52.008;5.426;2024-02-23T07:30:29;4.18;;;1.77;;
49730;SDS011;35622;52.008;5.426;2024-02-23T07:32:55;4.82;;;1.42;;
49730;SDS011;35622;52.008;5.426;2024-02-23T07:35:20;9.30;;;1.60;;
49730;SDS011;35622;52.008;5.426;2024-02-23T07:37:46;5.15;;;1.40;;
49730;SDS011;35622;52.008;5.426;2024-02-23T07:40:12;6.97;;;1.48;;
49730;SDS011;35622;52.008;5.426;2024-02-23T07:42:38;5.10;;;1.70;;
49730;SDS011;35622;52.008;5.426;2024-02-23T07:45:04;8.18;;;1.90;;
49730;SDS011;35622;52.008;5.426;2024-02-23T07:47:32;4.75;;;1.38;;
49730;SDS011;35622;52.008;5.426;2024-02-23T07:49:58;6.35;;;1.50;;
49730;SDS011;35622;52.008;5.426;2024-02-23T07:52:24;7.57;;;1.38;;
49730;SDS011;35622;52.008;5.426;2024-02-23T07:54:53;7.28;;;1.27;;
49730;SDS011;35622;52.008;5.426;2024-02-23T07:57:19;4.10;;;1.23;;
49730;SDS011;35622;52.008;5.426;2024-02-23T07:59:45;5.90;;;1.38;;
49730;SDS011;35622;52.008;5.426;2024-02-23T08:02:11;8.88;;;1.60;;
49730;SDS011;35622;52.008;5.426;2024-02-23T08:04:36;4.10;;;1.08;;
49730;SDS011;35622;52.008;5.426;2024-02-23T08:07:03;8.13;;;1.55;;
49730;SDS011;35622;52.008;5.426;2024-02-23T08:09:29;5.47;;;1.40;;
49730;SDS011;35622;52.008;5.426;2024-02-23T08:11:54;4.85;;;0.90;;
49730;SDS011;35622;52.008;5.426;2024-02-23T08:14:20;3.25;;;0.98;;
49730;SDS011;35622;52.008;5.426;2024-02-23T08:16:46;4.65;;;1.20;;
49730;SDS011;35622;52.008;5.426;2024-02-23T08:19:11;6.10;;;1.38;;
49730;SDS011;35622;52.008;5.426;2024-02-23T08:21:37;4.30;;;1.40;;
49730;SDS011;35622;52.008;5.426;2024-02-23T08:24:04;4.90;;;1.00;;
49730;SDS011;35622;52.008;5.426;2024-02-23T08:26:30;3.70;;;1.05;;
49730;SDS011;35622;52.008;5.426;2024-02-23T08:28:55;5.95;;;1.10;;
49730;SDS011;35622;52.008;5.426;2024-02-23T08:31:21;2.65;;;1.00;;
49730;SDS011;35622;52.008;5.426;2024-02-23T08:33:46;8.55;;;1.70;;
49730;SDS011;35622;52.008;5.426;2024-02-23T08:36:12;4.88;;;1.30;;
49730;SDS011;35622;52.008;5.426;2024-02-23T08:38:38;6.07;;;1.17;;
49730;SDS011;35622;52.008;5.426;2024-02-23T08:41:03;6.18;;;1.10;;
49730;SDS011;35622;52.008;5.426;2024-02-23T08:43:29;5.13;;;1.10;;
49730;SDS011;35622;52.008;5.426;2024-02-23T08:45:55;5.82;;;1.38;;
49730;SDS011;35622;52.008;5.426;2024-02-23T08:48:20;8.85;;;1.25;;
49730;SDS011;35622;52.008;5.426;2024-02-23T08:50:46;4.38;;;1.20;;
49730;SDS011;35622;52.008;5.426;2024-02-23T08:53:11;5.63;;;1.02;;
49730;SDS011;35622;52.008;5.426;2024-02-23T08:55:37;4.43;;;0.93;;
49730;SDS011;35622;52.008;5.426;2024-02-23T08:58:02;4.75;;;1.00;;
49730;SDS011;35622;52.008;5.426;2024-02-23T09:00:30;6.25;;;1.23;;
49730;SDS011;35622;52.008;5.426;2024-02-23T09:02:56;4.75;;;0.90;;
49730;SDS011;35622;52.008;5.426;2024-02-23T09:05:22;6.70;;;1.15;;
49730;SDS011;35622;52.008;5.426;2024-02-23T09:07:47;3.80;;;1.08;;
49730;SDS011;35622;52.008;5.426;2024-02-23T09:10:13;7.00;;;1.52;;
49730;SDS011;35622;52.008;5.426;2024-02-23T09:12:39;8.10;;;1.08;;
49730;SDS011;35622;52.008;5.426;2024-02-23T09:15:04;10.18;;;1.33;;
49730;SDS011;35622;52.008;5.426;2024-02-23T09:17:31;6.97;;;1.05;;
49730;SDS011;35622;52.008;5.426;2024-02-23T09:19:56;6.75;;;1.20;;
49730;SDS011;35622;52.008;5.426;2024-02-23T09:22:22;4.70;;;0.90;;
49730;SDS011;35622;52.008;5.426;2024-02-23T09:24:48;7.30;;;1.00;;
49730;SDS011;35622;52.008;5.426;2024-02-23T09:27:14;7.45;;;1.15;;
49730;SDS011;35622;52.008;5.426;2024-02-23T09:29:40;7.22;;;1.25;;
49730;SDS011;35622;52.008;5.426;2024-02-23T09:32:07;5.88;;;1.10;;
49730;SDS011;35622;52.008;5.426;2024-02-23T09:34:32;5.70;;;1.17;;
49730;SDS011;35622;52.008;5.426;2024-02-23T09:36:58;6.50;;;1.02;;
49730;SDS011;35622;52.008;5.426;2024-02-23T09:39:23;7.20;;;0.98;;
49730;SDS011;35622;52.008;5.426;2024-02-23T09:41:51;7.78;;;1.05;;
49730;SDS011;35622;52.008;5.426;2024-02-23T09:44:18;3.88;;;0.98;;
49730;SDS011;35622;52.008;5.426;2024-02-23T09:46:46;6.22;;;1.30;;
49730;SDS011;35622;52.008;5.426;2024-02-23T09:49:11;6.97;;;1.20;;
49730;SDS011;35622;52.008;5.426;2024-02-23T09:51:38;6.38;;;1.30;;
49730;SDS011;35622;52.008;5.426;2024-02-23T09:54:04;6.45;;;1.13;;
49730;SDS011;35622;52.008;5.426;2024-02-23T09:56:30;4.97;;;1.30;;
49730;SDS011;35622;52.008;5.426;2024-02-23T09:58:59;3.65;;;1.20;;
49730;SDS011;35622;52.008;5.426;2024-02-23T10:01:29;5.97;;;1.10;;
49730;SDS011;35622;52.008;5.426;2024-02-23T10:03:57;4.55;;;1.50;;
49730;SDS011;35622;52.008;5.426;2024-02-23T10:06:24;3.55;;;1.08;;
49730;SDS011;35622;52.008;5.426;2024-02-23T10:08:50;3.85;;;1.20;;
49730;SDS011;35622;52.008;5.426;2024-02-23T10:11:20;3.72;;;1.08;;
49730;SDS011;35622;52.008;5.426;2024-02-23T10:13:47;5.97;;;1.50;;
49730;SDS011;35622;52.008;5.426;2024-02-23T10:16:17;4.72;;;1.15;;
49730;SDS011;35622;52.008;5.426;2024-02-23T10:18:46;7.93;;;1.40;;
49730;SDS011;35622;52.008;5.426;2024-02-23T10:21:15;4.90;;;1.23;;
49730;SDS011;35622;52.008;5.426;2024-02-23T10:23:41;5.63;;;0.98;;
49730;SDS011;35622;52.008;5.426;2024-02-23T10:26:09;3.60;;;1.15;;
49730;SDS011;35622;52.008;5.426;2024-02-23T10:28:36;6.32;;;1.20;;
49730;SDS011;35622;52.008;5.426;2024-02-23T10:31:04;6.50;;;1.25;;
49730;SDS011;35622;52.008;5.426;2024-02-23T10:33:30;8.05;;;1.40;;
49730;SDS011;35622;52.008;5.426;2024-02-23T10:35:56;3.38;;;1.15;;
49730;SDS011;35622;52.008;5.426;2024-02-23T10:38:27;2.85;;;1.08;;
49730;SDS011;35622;52.008;5.426;2024-02-23T10:40:57;5.00;;;1.00;;
49730;SDS011;35622;52.008;5.426;2024-02-23T10:43:30;4.18;;;1.10;;
49730;SDS011;35622;52.008;5.426;2024-02-23T10:45:59;3.03;;;1.08;;
49730;SDS011;35622;52.008;5.426;2024-02-23T10:48:27;3.47;;;1.08;;
49730;SDS011;35622;52.008;5.426;2024-02-23T10:50:54;5.82;;;1.50;;
49730;SDS011;35622;52.008;5.426;2024-02-23T10:53:21;6.70;;;1.20;;
49730;SDS011;35622;52.008;5.426;2024-02-23T10:55:51;3.42;;;1.20;;
49730;SDS011;35622;52.008;5.426;2024-02-23T10:58:22;7.65;;;1.60;;
49730;SDS011;35622;52.008;5.426;2024-02-23T11:00:47;2.95;;;1.20;;
49730;SDS011;35622;52.008;5.426;2024-02-23T11:03:13;4.75;;;1.20;;
49730;SDS011;35622;52.008;5.426;2024-02-23T11:05:40;3.67;;;1.23;;
49730;SDS011;35622;52.008;5.426;2024-02-23T11:08:06;4.35;;;1.42;;
49730;SDS011;35622;52.008;5.426;2024-02-23T11:10:41;3.78;;;1.15;;
49730;SDS011;35622;52.008;5.426;2024-02-23T11:13:07;5.43;;;1.60;;
49730;SDS011;35622;52.008;5.426;2024-02-23T11:15:33;4.80;;;1.20;;
49730;SDS011;35622;52.008;5.426;2024-02-23T11:18:20;3.83;;;1.60;;
49730;SDS011;35622;52.008;5.426;2024-02-23T11:20:53;6.15;;;1.67;;
49730;SDS011;35622;52.008;5.426;2024-02-23T11:23:19;5.43;;;1.50;;
49730;SDS011;35622;52.008;5.426;2024-02-23T11:25:58;3.25;;;1.40;;
49730;SDS011;35622;52.008;5.426;2024-02-23T11:28:29;3.92;;;1.50;;
49730;SDS011;35622;52.008;5.426;2024-02-23T11:30:56;5.78;;;1.58;;
49730;SDS011;35622;52.008;5.426;2024-02-23T11:33:27;6.28;;;1.48;;
49730;SDS011;35622;52.008;5.426;2024-02-23T11:36:04;2.92;;;1.50;;
49730;SDS011;35622;52.008;5.426;2024-02-23T11:38:33;3.55;;;1.50;;
49730;SDS011;35622;52.008;5.426;2024-02-23T11:41:02;5.43;;;1.40;;
49730;SDS011;35622;52.008;5.426;2024-02-23T11:43:28;6.43;;;1.60;;
49730;SDS011;35622;52.008;5.426;2024-02-23T11:45:54;5.78;;;1.27;;
49730;SDS011;35622;52.008;5.426;2024-02-23T11:48:19;4.93;;;1.40;;
49730;SDS011;35622;52.008;5.426;2024-02-23T11:50:47;5.82;;;1.45;;
49730;SDS011;35622;52.008;5.426;2024-02-23T11:53:15;3.58;;;1.23;;
49730;SDS011;35622;52.008;5.426;2024-02-23T11:55:41;5.57;;;1.70;;
49730;SDS011;35622;52.008;5.426;2024-02-23T11:58:07;4.05;;;1.77;;
49730;SDS011;35622;52.008;5.426;2024-02-23T12:00:34;6.32;;;1.80;;
49730;SDS011;35622;52.008;5.426;2024-02-23T12:03:00;2.97;;;1.30;;
49730;SDS011;35622;52.008;5.426;2024-02-23T12:05:26;2.90;;;1.20;;
49730;SDS011;35622;52.008;5.426;2024-02-23T12:07:52;4.07;;;1.63;;
49730;SDS011;35622;52.008;5.426;2024-02-23T12:10:18;3.70;;;1.35;;
49730;SDS011;35622;52.008;5.426;2024-02-23T12:12:44;3.65;;;1.38;;
49730;SDS011;35622;52.008;5.426;2024-02-23T12:15:09;4.15;;;1.70;;
49730;SDS011;35622;52.008;5.426;2024-02-23T12:17:36;5.05;;;1.67;;
49730;SDS011;35622;52.008;5.426;2024-02-23T12:20:02;4.20;;;1.60;;
49730;SDS011;35622;52.008;5.426;2024-02-23T12:22:29;5.47;;;1.92;;
49730;SDS011;35622;52.008;5.426;2024-02-23T12:24:58;4.53;;;1.70;;
49730;SDS011;35622;52.008;5.426;2024-02-23T12:27:24;4.85;;;1.55;;
49730;SDS011;35622;52.008;5.426;2024-02-23T12:29:52;3.25;;;1.73;;
49730;SDS011;35622;52.008;5.426;2024-02-23T12:32:19;2.75;;;1.85;;
49730;SDS011;35622;52.008;5.426;2024-02-23T12:34:45;6.25;;;1.80;;
49730;SDS011;35622;52.008;5.426;2024-02-23T12:37:14;3.88;;;1.55;;
49730;SDS011;35622;52.008;5.426;2024-02-23T12:39:41;4.47;;;1.40;;
49730;SDS011;35622;52.008;5.426;2024-02-23T12:42:07;3.92;;;1.40;;
49730;SDS011;35622;52.008;5.426;2024-02-23T12:44:33;2.88;;;1.30;;
49730;SDS011;35622;52.008;5.426;2024-02-23T12:46:58;4.18;;;1.40;;
49730;SDS011;35622;52.008;5.426;2024-02-23T12:49:24;3.70;;;1.40;;
49730;SDS011;35622;52.008;5.426;2024-02-23T12:51:49;4.78;;;1.50;;
49730;SDS011;35622;52.008;5.426;2024-02-23T12:54:15;2.60;;;1.30;;
49730;SDS011;35622;52.008;5.426;2024-02-23T12:56:41;5.20;;;1.20;;
49730;SDS011;35622;52.008;5.426;2024-02-23T12:59:07;3.47;;;1.08;;
49730;SDS011;35622;52.008;5.426;2024-02-23T13:01:34;2.60;;;1.30;;
49730;SDS011;35622;52.008;5.426;2024-02-23T13:04:04;5.63;;;1.50;;
49730;SDS011;35622;52.008;5.426;2024-02-23T13:06:36;3.35;;;0.90;;
49730;SDS011;35622;52.008;5.426;2024-02-23T13:09:03;3.60;;;1.10;;
49730;SDS011;35622;52.008;5.426;2024-02-23T13:11:29;2.13;;;1.30;;
49730;SDS011;35622;52.008;5.426;2024-02-23T13:13:55;5.97;;;1.38;;
49730;SDS011;35622;52.008;5.426;2024-02-23T13:16:20;3.67;;;1.10;;
49730;SDS011;35622;52.008;5.426;2024-02-23T13:18:46;4.60;;;1.08;;
49730;SDS011;35622;52.008;5.426;2024-02-23T13:21:12;2.92;;;1.13;;
49730;SDS011;35622;52.008;5.426;2024-02-23T13:23:38;3.10;;;1.00;;
49730;SDS011;35622;52.008;5.426;2024-02-23T13:26:04;2.97;;;1.20;;
49730;SDS011;35622;52.008;5.426;2024-02-23T13:28:30;4.05;;;1.02;;
49730;SDS011;35622;52.008;5.426;2024-02-23T13:30:55;3.97;;;1.50;;
49730;SDS011;35622;52.008;5.426;2024-02-23T13:33:21;3.28;;;1.10;;
49730;SDS011;35622;52.008;5.426;2024-02-23T13:35:48;3.78;;;1.02;;
49730;SDS011;35622;52.008;5.426;2024-02-23T13:38:14;2.72;;;1.02;;
49730;SDS011;35622;52.008;5.426;2024-02-23T13:40:40;4.28;;;1.30;;
49730;SDS011;35622;52.008;5.426;2024-02-23T13:43:05;4.80;;;1.20;;
49730;SDS011;35622;52.008;5.426;2024-02-23T13:45:31;4.32;;;1.40;;
49730;SDS011;35622;52.008;5.426;2024-02-23T13:50:27;4.35;;;1.20;;
49730;SDS011;35622;52.008;5.426;2024-02-23T13:52:53;2.95;;;1.23;;
49730;SDS011;35622;52.008;5.426;2024-02-23T13:55:19;3.58;;;1.20;;
49730;SDS011;35622;52.008;5.426;2024-02-23T13:57:48;4.55;;;1.50;;
49730;SDS011;35622;52.008;5.426;2024-02-23T14:00:15;3.78;;;1.20;;
49730;SDS011;35622;52.008;5.426;2024-02-23T14:02:41;5.50;;;1.50;;
49730;SDS011;35622;52.008;5.426;2024-02-23T14:05:07;2.08;;;1.02;;
49730;SDS011;35622;52.008;5.426;2024-02-23T14:07:33;4.13;;;1.30;;
49730;SDS011;35622;52.008;5.426;2024-02-23T14:09:59;6.45;;;1.40;;
49730;SDS011;35622;52.008;5.426;2024-02-23T14:12:24;4.13;;;1.20;;
49730;SDS011;35622;52.008;5.426;2024-02-23T14:14:51;4.13;;;1.35;;
49730;SDS011;35622;52.008;5.426;2024-02-23T14:17:16;4.35;;;1.20;;
49730;SDS011;35622;52.008;5.426;2024-02-23T14:19:42;3.90;;;1.10;;
49730;SDS011;35622;52.008;5.426;2024-02-23T14:22:07;2.13;;;1.02;;
49730;SDS011;35622;52.008;5.426;2024-02-23T14:24:33;3.47;;;1.00;;
49730;SDS011;35622;52.008;5.426;2024-02-23T14:26:59;2.35;;;1.27;;
49730;SDS011;35622;52.008;5.426;2024-02-23T14:29:25;2.90;;;1.05;;
49730;SDS011;35622;52.008;5.426;2024-02-23T14:31:50;3.15;;;1.00;;
49730;SDS011;35622;52.008;5.426;2024-02-23T14:34:16;2.15;;;0.98;;
49730;SDS011;35622;52.008;5.426;2024-02-23T14:36:41;3.20;;;1.25;;
49730;SDS011;35622;52.008;5.426;2024-02-23T14:39:08;3.90;;;1.55;;
49730;SDS011;35622;52.008;5.426;2024-02-23T14:41:35;5.60;;;1.50;;
49730;SDS011;35622;52.008;5.426;2024-02-23T14:44:01;3.28;;;1.25;;